createdAt,value
2023-05-09T00:00:13.703Z,18.17
2023-05-09T00:02:46.364Z,17.00
2023-05-09T00:05:16.943Z,16.60
2023-05-09T00:07:45.721Z,16.97
2023-05-09T00:10:13.809Z,17.07
2023-05-09T00:12:44.007Z,16.73
2023-05-09T00:15:11.798Z,16.77
2023-05-09T00:17:40.345Z,17.47
2023-05-09T00:20:11.916Z,16.63
2023-05-09T00:22:42.444Z,17.40
2023-05-09T00:25:12.007Z,16.27
2023-05-09T00:27:41.187Z,14.93
2023-05-09T00:30:10.113Z,15.10
2023-05-09T00:32:40.580Z,15.63
2023-05-09T00:35:10.220Z,15.23
2023-05-09T00:37:38.101Z,15.40
2023-05-09T00:40:07.588Z,15.07
2023-05-09T00:42:36.123Z,14.30
2023-05-09T00:45:04.464Z,14.57
2023-05-09T00:47:37.032Z,14.23
2023-05-09T00:50:10.539Z,13.80
2023-05-09T00:52:40.193Z,13.27
2023-05-09T00:55:15.848Z,13.93
2023-05-09T00:57:49.353Z,13.90
2023-05-09T01:00:19.978Z,14.80
2023-05-09T01:02:55.160Z,13.80
2023-05-09T01:05:26.555Z,14.30
2023-05-09T01:08:00.635Z,14.20
2023-05-09T01:10:46.621Z,14.60
2023-05-09T01:13:38.291Z,13.73
2023-05-09T01:16:13.322Z,13.90
2023-05-09T01:18:47.815Z,14.47
2023-05-09T01:21:22.675Z,14.57
2023-05-09T01:24:15.800Z,14.07
2023-05-09T01:26:46.583Z,14.30
2023-05-09T01:29:41.331Z,14.03
2023-05-09T01:32:16.906Z,13.30
2023-05-09T01:34:47.412Z,13.63
2023-05-09T01:37:16.347Z,13.87
2023-05-09T01:39:47.560Z,13.90
2023-05-09T01:42:16.664Z,13.77
2023-05-09T01:44:50.188Z,13.30
2023-05-09T01:47:24.227Z,13.57
2023-05-09T01:49:52.874Z,12.97
2023-05-09T01:52:22.592Z,13.23
2023-05-09T01:54:52.128Z,13.27
2023-05-09T01:57:20.116Z,12.63
2023-05-09T01:59:50.640Z,12.47
2023-05-09T02:02:20.270Z,12.77
2023-05-09T02:04:51.617Z,13.37
2023-05-09T02:07:19.686Z,14.10
2023-05-09T02:09:48.203Z,13.23
2023-05-09T02:12:16.571Z,13.80
2023-05-09T02:14:48.887Z,14.63
2023-05-09T02:17:24.190Z,15.70
2023-05-09T02:19:52.846Z,14.80
2023-05-09T02:22:20.141Z,15.00
2023-05-09T02:24:49.757Z,15.30
2023-05-09T02:27:18.494Z,15.47
2023-05-09T02:29:49.335Z,15.03
2023-05-09T02:32:21.869Z,14.70
2023-05-09T02:34:50.413Z,15.73
2023-05-09T02:37:18.858Z,14.93
2023-05-09T02:39:46.550Z,15.37
2023-05-09T02:42:14.935Z,15.87
2023-05-09T02:44:43.230Z,15.00
2023-05-09T02:47:13.023Z,15.03
2023-05-09T02:49:41.613Z,15.00
2023-05-09T02:52:10.456Z,13.97
2023-05-09T02:54:38.350Z,14.13
2023-05-09T02:57:05.894Z,14.40
2023-05-09T02:59:35.644Z,15.07
2023-05-09T03:02:03.810Z,14.53
2023-05-09T03:04:32.174Z,14.73
2023-05-09T03:07:02.542Z,15.27
2023-05-09T03:09:35.905Z,15.83
2023-05-09T03:12:05.140Z,16.03
2023-05-09T03:14:36.843Z,15.77
2023-05-09T03:17:06.046Z,16.20
2023-05-09T03:19:36.728Z,16.13
2023-05-09T03:22:06.514Z,16.30
2023-05-09T03:24:40.106Z,16.77
2023-05-09T03:27:09.710Z,16.00
2023-05-09T03:29:39.135Z,16.50
2023-05-09T03:32:06.606Z,16.53
2023-05-09T03:34:36.577Z,17.23
2023-05-09T03:37:09.462Z,15.83
2023-05-09T03:40:18.243Z,17.23
2023-05-09T03:45:41.072Z,15.90
2023-05-09T03:48:30.061Z,15.07
2023-05-09T03:51:02.099Z,14.10
2023-05-09T03:53:34.362Z,14.20
2023-05-09T03:56:08.134Z,13.97
2023-05-09T03:58:48.858Z,13.67
2023-05-09T04:01:23.525Z,14.17
2023-05-09T04:03:59.936Z,13.93
2023-05-09T04:06:36.489Z,13.97
2023-05-09T04:09:11.023Z,13.43
2023-05-09T04:11:55.958Z,13.77
2023-05-09T04:14:31.247Z,14.63
2023-05-09T04:17:04.508Z,14.10
2023-05-09T04:19:33.994Z,14.13
2023-05-09T04:22:03.712Z,14.40
2023-05-09T04:24:34.636Z,13.67
2023-05-09T04:27:11.110Z,14.43
2023-05-09T04:29:39.123Z,13.57
2023-05-09T04:32:09.750Z,14.50
2023-05-09T04:34:41.424Z,14.40
2023-05-09T04:37:17.550Z,13.70
2023-05-09T04:39:47.487Z,13.97
2023-05-09T04:42:23.601Z,14.20
2023-05-09T04:44:52.148Z,15.03
2023-05-09T04:47:23.994Z,14.97
2023-05-09T04:49:51.360Z,13.70
2023-05-09T04:52:18.695Z,14.17
2023-05-09T04:54:47.078Z,13.50
2023-05-09T04:57:18.754Z,13.70
2023-05-09T04:59:54.258Z,13.87
2023-05-09T05:02:22.394Z,13.38
2023-05-09T05:04:56.132Z,13.60
2023-05-09T05:07:30.986Z,12.43
2023-05-09T05:09:58.506Z,13.20
2023-05-09T05:12:26.184Z,13.90
2023-05-09T05:14:53.648Z,13.10
2023-05-09T05:17:27.035Z,12.77
2023-05-09T05:19:54.596Z,13.43
2023-05-09T05:22:21.938Z,12.97
2023-05-09T05:24:49.938Z,12.43
2023-05-09T05:27:17.296Z,12.17
2023-05-09T05:29:44.872Z,12.70
2023-05-09T05:32:19.992Z,13.30
2023-05-09T05:34:47.346Z,13.60
2023-05-09T05:37:15.122Z,13.13
2023-05-09T05:39:45.061Z,12.67
2023-05-09T05:42:13.341Z,12.07
2023-05-09T05:44:45.017Z,12.10
2023-05-09T05:47:21.544Z,12.17
2023-05-09T05:49:50.575Z,12.30
2023-05-09T05:52:20.357Z,13.80
2023-05-09T05:54:52.140Z,12.93
2023-05-09T05:57:19.532Z,12.67
2023-05-09T05:59:50.733Z,11.70
2023-05-09T06:02:19.743Z,11.93
2023-05-09T06:04:49.716Z,11.60
2023-05-09T06:07:18.803Z,12.65
2023-05-09T06:09:48.244Z,12.10
2023-05-09T06:12:17.074Z,11.53
2023-05-09T06:14:45.656Z,11.40
2023-05-09T06:17:15.567Z,11.20
2023-05-09T06:19:45.033Z,11.65
2023-05-09T06:22:16.370Z,11.00
2023-05-09T06:24:44.193Z,9.98
2023-05-09T06:27:11.952Z,9.68
2023-05-09T06:29:39.637Z,9.93
2023-05-09T06:32:06.996Z,9.20
2023-05-09T06:34:35.366Z,9.25
2023-05-09T06:37:02.654Z,8.65
2023-05-09T06:39:30.157Z,9.15
2023-05-09T06:41:58.059Z,8.40
2023-05-09T06:44:35.840Z,8.00
2023-05-09T06:47:05.180Z,7.88
2023-05-09T06:49:32.966Z,7.80
2023-05-09T06:52:00.413Z,7.43
2023-05-09T06:54:30.011Z,7.28
2023-05-09T06:56:57.303Z,6.05
2023-05-09T06:59:25.607Z,5.45
2023-05-09T07:01:53.594Z,5.07
2023-05-09T07:04:20.925Z,4.93
2023-05-09T07:06:48.449Z,4.45
2023-05-09T07:09:20.523Z,4.90
2023-05-09T07:11:48.938Z,4.22
2023-05-09T07:14:17.340Z,4.10
2023-05-09T07:16:46.558Z,4.60
2023-05-09T07:19:17.997Z,3.97
2023-05-09T07:21:45.985Z,3.60
2023-05-09T07:24:15.258Z,3.90
2023-05-09T07:26:44.116Z,4.13
2023-05-09T07:29:13.230Z,3.78
2023-05-09T07:31:44.523Z,4.93
2023-05-09T07:34:11.832Z,3.70
2023-05-09T07:36:41.790Z,4.28
2023-05-09T07:39:12.737Z,2.92
2023-05-09T07:41:42.378Z,2.72
2023-05-09T07:44:11.336Z,2.70
2023-05-09T07:46:41.942Z,2.90
2023-05-09T07:49:09.548Z,2.88
2023-05-09T07:51:43.453Z,2.97
2023-05-09T07:54:12.998Z,3.00
2023-05-09T07:56:41.111Z,2.90
2023-05-09T07:59:11.163Z,2.60
2023-05-09T08:01:40.424Z,3.47
2023-05-09T08:04:09.203Z,3.10
2023-05-09T08:06:38.692Z,2.95
2023-05-09T08:09:07.263Z,2.95
2023-05-09T08:11:35.117Z,3.03
2023-05-09T08:14:02.637Z,3.83
2023-05-09T08:16:31.181Z,3.55
2023-05-09T08:19:03.384Z,3.40
2023-05-09T08:21:31.971Z,2.78
2023-05-09T08:24:03.923Z,3.03
2023-05-09T08:26:31.257Z,2.85
2023-05-09T08:29:01.639Z,3.17
2023-05-09T08:31:32.306Z,2.63
2023-05-09T08:33:59.666Z,3.10
2023-05-09T08:36:26.950Z,3.10
2023-05-09T08:38:57.157Z,2.97
2023-05-09T08:41:31.142Z,3.20
2023-05-09T08:44:00.192Z,3.05
2023-05-09T08:46:34.250Z,2.80
2023-05-09T08:49:03.528Z,2.83
2023-05-09T08:51:32.420Z,2.90
2023-05-09T08:54:02.270Z,3.05
2023-05-09T08:56:30.935Z,3.30
2023-05-09T08:58:59.280Z,3.10
2023-05-09T09:01:26.996Z,3.00
2023-05-09T09:03:54.649Z,3.28
2023-05-09T09:06:26.196Z,2.85
2023-05-09T09:08:56.274Z,2.80
2023-05-09T09:11:26.187Z,3.08
2023-05-09T09:13:53.795Z,2.65
2023-05-09T09:16:22.937Z,2.70
2023-05-09T09:18:53.133Z,3.05
2023-05-09T09:21:21.072Z,3.55
2023-05-09T09:23:49.705Z,2.63
2023-05-09T09:26:17.244Z,2.30
2023-05-09T09:28:45.087Z,2.50
2023-05-09T09:31:29.403Z,2.55
2023-05-09T09:34:01.989Z,2.45
2023-05-09T09:36:30.612Z,2.50
2023-05-09T09:39:00.597Z,2.92
2023-05-09T09:41:38.665Z,2.50
2023-05-09T09:44:09.772Z,2.67
2023-05-09T09:47:00.074Z,2.25
2023-05-09T09:49:27.869Z,2.58
2023-05-09T09:52:00.146Z,2.50
2023-05-09T09:54:27.880Z,2.70
2023-05-09T09:56:56.661Z,2.60
2023-05-09T09:59:26.875Z,2.85
2023-05-09T10:01:58.580Z,2.70
2023-05-09T10:04:26.601Z,2.75
2023-05-09T10:06:54.314Z,3.47
2023-05-09T10:09:22.909Z,2.70
2023-05-09T10:11:52.144Z,2.83
2023-05-09T10:14:20.341Z,2.80
2023-05-09T10:16:51.679Z,2.67
2023-05-09T10:19:21.076Z,2.88
2023-05-09T10:21:55.591Z,3.00
2023-05-09T10:24:31.911Z,2.90
2023-05-09T10:27:04.272Z,2.63
2023-05-09T10:29:33.642Z,2.90
2023-05-09T10:32:06.740Z,3.00
2023-05-09T10:34:35.724Z,2.65
2023-05-09T10:37:03.409Z,2.67
2023-05-09T10:39:31.506Z,3.20
2023-05-09T10:41:59.527Z,3.05
2023-05-09T10:44:28.850Z,2.90
2023-05-09T10:46:56.796Z,2.58
2023-05-09T10:49:25.398Z,3.20
2023-05-09T10:51:52.919Z,3.00
2023-05-09T10:54:32.468Z,2.85
2023-05-09T10:57:00.864Z,2.70
2023-05-09T10:59:34.132Z,2.83
2023-05-09T11:02:03.115Z,2.75
2023-05-09T11:04:31.331Z,2.70
2023-05-09T11:06:59.200Z,2.30
2023-05-09T11:09:33.877Z,2.80
2023-05-09T11:12:01.723Z,3.03
2023-05-09T11:14:33.292Z,2.72
2023-05-09T11:17:03.592Z,2.45
2023-05-09T11:19:40.577Z,2.67
2023-05-09T11:22:16.907Z,3.00
2023-05-09T11:24:46.273Z,2.83
2023-05-09T11:27:17.925Z,3.00
2023-05-09T11:29:51.965Z,2.55
2023-05-09T11:32:19.923Z,2.75
2023-05-09T11:34:47.313Z,2.80
2023-05-09T11:37:16.465Z,2.63
2023-05-09T11:39:58.186Z,2.67
2023-05-09T11:42:29.148Z,2.50
2023-05-09T11:44:57.274Z,3.55
2023-05-09T11:47:25.195Z,2.85
2023-05-09T11:49:52.788Z,2.92
2023-05-09T11:52:22.063Z,2.75
2023-05-09T11:54:52.236Z,2.70
2023-05-09T11:57:19.726Z,2.72
2023-05-09T11:59:50.394Z,2.75
2023-05-09T12:02:19.415Z,2.80
2023-05-09T12:04:48.056Z,2.60
2023-05-09T12:07:21.469Z,2.83
2023-05-09T12:09:52.239Z,2.63
2023-05-09T12:12:21.717Z,2.70
2023-05-09T12:14:49.634Z,2.40
2023-05-09T12:17:17.025Z,2.80
2023-05-09T12:19:47.054Z,2.60
2023-05-09T12:22:15.674Z,2.58
2023-05-09T12:24:46.038Z,2.42
2023-05-09T12:27:14.971Z,2.67
2023-05-09T12:29:46.052Z,2.60
2023-05-09T12:32:14.886Z,2.50
2023-05-09T12:34:46.583Z,2.50
2023-05-09T12:37:21.884Z,2.70
2023-05-09T12:40:02.655Z,2.75
2023-05-09T12:45:20.286Z,3.05
2023-05-09T12:47:52.709Z,2.50
2023-05-09T12:50:21.080Z,2.83
2023-05-09T12:53:02.668Z,2.90
2023-05-09T12:55:31.858Z,2.97
2023-05-09T12:58:00.064Z,2.60
2023-05-09T13:00:27.520Z,2.85
2023-05-09T13:02:55.208Z,2.60
2023-05-09T13:05:23.347Z,2.60
2023-05-09T13:07:57.531Z,2.85
2023-05-09T13:10:27.415Z,2.55
2023-05-09T13:12:54.890Z,2.70
2023-05-09T13:15:23.236Z,2.90
2023-05-09T13:17:51.875Z,2.72
2023-05-09T13:20:20.026Z,2.42
2023-05-09T13:22:50.128Z,2.63
2023-05-09T13:25:19.503Z,2.80
2023-05-09T13:27:46.757Z,2.70
2023-05-09T13:30:16.595Z,2.60
2023-05-09T13:32:45.178Z,2.60
2023-05-09T13:35:12.612Z,2.80
2023-05-09T13:37:40.148Z,2.97
2023-05-09T13:40:08.041Z,2.70
2023-05-09T13:42:35.457Z,2.63
2023-05-09T13:45:02.807Z,2.85
2023-05-09T13:47:30.201Z,2.75
2023-05-09T13:49:57.429Z,2.85
2023-05-09T13:52:27.427Z,2.80
2023-05-09T13:55:13.876Z,2.72
2023-05-09T13:57:43.183Z,2.88
2023-05-09T14:00:14.370Z,2.75
2023-05-09T14:02:43.011Z,3.08
2023-05-09T14:05:10.374Z,2.47
2023-05-09T14:07:37.750Z,2.88
2023-05-09T14:12:35.626Z,2.65
2023-05-09T14:15:04.593Z,2.80
2023-05-09T14:17:31.963Z,2.67
2023-05-09T14:19:59.314Z,3.45
2023-05-09T14:22:26.887Z,2.90
2023-05-09T14:24:57.438Z,2.70
2023-05-09T14:27:27.930Z,2.60
2023-05-09T14:29:55.325Z,2.33
2023-05-09T14:32:22.641Z,2.90
2023-05-09T14:34:53.520Z,2.80
2023-05-09T14:37:23.265Z,2.75
2023-05-09T14:39:51.441Z,2.60
2023-05-09T14:42:19.788Z,2.80
2023-05-09T14:44:50.129Z,2.85
2023-05-09T14:47:18.984Z,2.50
2023-05-09T14:49:46.534Z,2.50
2023-05-09T14:52:16.893Z,2.80
2023-05-09T14:54:50.203Z,2.75
2023-05-09T14:57:25.629Z,2.80
2023-05-09T15:00:03.170Z,2.80
2023-05-09T15:02:40.177Z,3.03
2023-05-09T15:05:11.443Z,2.88
2023-05-09T15:07:52.870Z,2.92
2023-05-09T15:10:21.798Z,3.00
2023-05-09T15:12:52.684Z,2.80
2023-05-09T15:15:23.262Z,2.83
2023-05-09T15:17:55.765Z,2.88
2023-05-09T15:20:26.321Z,2.70
2023-05-09T15:22:54.419Z,2.60
2023-05-09T15:25:32.863Z,3.03
2023-05-09T15:28:00.555Z,3.30
2023-05-09T15:30:28.333Z,3.38
2023-05-09T15:32:56.045Z,3.30
2023-05-09T15:35:23.900Z,2.85
2023-05-09T15:37:53.697Z,2.97
2023-05-09T15:40:23.790Z,2.97
2023-05-09T15:42:51.276Z,2.88
2023-05-09T15:45:18.904Z,2.80
2023-05-09T15:47:46.217Z,3.28
2023-05-09T15:50:14.162Z,2.70
2023-05-09T15:52:42.982Z,2.92
2023-05-09T15:55:12.961Z,2.85
2023-05-09T15:57:41.073Z,3.08
2023-05-09T16:00:10.018Z,3.00
2023-05-09T16:02:42.119Z,3.30
2023-05-09T16:05:12.437Z,4.63
2023-05-09T16:07:39.899Z,6.13
2023-05-09T16:10:07.418Z,5.50
2023-05-09T16:12:35.681Z,3.15
2023-05-09T16:15:03.355Z,2.58
2023-05-09T16:17:34.287Z,2.80
2023-05-09T16:20:02.846Z,2.78
2023-05-09T16:22:30.168Z,2.70
2023-05-09T16:24:58.907Z,3.10
2023-05-09T16:27:27.329Z,2.80
2023-05-09T16:29:56.330Z,3.05
2023-05-09T16:32:23.649Z,2.50
2023-05-09T16:34:52.669Z,2.70
2023-05-09T16:37:20.168Z,3.10
2023-05-09T16:39:48.791Z,2.70
2023-05-09T16:42:18.241Z,2.72
2023-05-09T16:44:45.723Z,2.88
2023-05-09T16:47:15.173Z,3.20
2023-05-09T16:49:44.021Z,2.92
2023-05-09T16:52:11.560Z,3.13
2023-05-09T16:54:39.993Z,3.00
2023-05-09T16:57:07.609Z,2.88
2023-05-09T16:59:36.956Z,3.08
2023-05-09T17:02:04.853Z,3.15
2023-05-09T17:04:32.191Z,2.95
2023-05-09T17:06:59.572Z,2.90
2023-05-09T17:09:26.887Z,2.92
2023-05-09T17:11:55.943Z,2.97
2023-05-09T17:14:23.348Z,3.40
2023-05-09T17:16:52.992Z,3.05
2023-05-09T17:19:23.757Z,3.38
2023-05-09T17:21:51.225Z,2.92
2023-05-09T17:24:18.487Z,3.10
2023-05-09T17:26:48.978Z,3.40
2023-05-09T17:29:17.496Z,3.22
2023-05-09T17:31:49.407Z,3.00
2023-05-09T17:34:18.808Z,3.25
2023-05-09T17:36:47.160Z,3.20
2023-05-09T17:39:17.976Z,3.00
2023-05-09T17:41:49.985Z,3.10
2023-05-09T17:44:17.819Z,3.08
2023-05-09T17:46:45.238Z,3.95
2023-05-09T17:49:14.140Z,3.22
2023-05-09T17:51:42.953Z,3.40
2023-05-09T17:54:11.124Z,3.45
2023-05-09T17:56:39.442Z,3.45
2023-05-09T17:59:07.941Z,3.35
2023-05-09T18:01:35.830Z,3.58
2023-05-09T18:04:03.391Z,3.38
2023-05-09T18:06:31.354Z,3.35
2023-05-09T18:09:01.727Z,3.85
2023-05-09T18:11:29.205Z,3.35
2023-05-09T18:13:58.609Z,4.18
2023-05-09T18:16:26.191Z,4.22
2023-05-09T18:18:53.509Z,3.90
2023-05-09T18:21:21.124Z,3.70
2023-05-09T18:23:49.415Z,3.80
2023-05-09T18:26:17.045Z,4.40
2023-05-09T18:28:44.509Z,4.35
2023-05-09T18:31:12.963Z,4.22
2023-05-09T18:33:40.508Z,4.63
2023-05-09T18:36:09.442Z,4.30
2023-05-09T18:38:38.544Z,3.78
2023-05-09T18:41:09.819Z,4.30
2023-05-09T18:43:39.073Z,4.45
2023-05-09T18:46:10.348Z,4.38
2023-05-09T18:48:39.154Z,4.20
2023-05-09T18:51:09.480Z,4.80
2023-05-09T18:53:38.489Z,4.97
2023-05-09T18:56:06.579Z,4.95
2023-05-09T18:58:37.302Z,4.80
2023-05-09T19:01:12.138Z,4.80
2023-05-09T19:03:46.440Z,5.10
2023-05-09T19:06:16.534Z,5.10
2023-05-09T19:08:44.141Z,5.30
2023-05-09T19:11:12.095Z,5.25
2023-05-09T19:13:41.080Z,4.88
2023-05-09T19:16:11.316Z,5.25
2023-05-09T19:18:38.644Z,5.13
2023-05-09T19:21:06.369Z,5.18
2023-05-09T19:23:33.803Z,5.50
2023-05-09T19:26:03.317Z,5.47
2023-05-09T19:28:30.964Z,5.85
2023-05-09T19:30:58.576Z,5.78
2023-05-09T19:33:26.085Z,5.88
2023-05-09T19:35:55.740Z,5.65
2023-05-09T19:38:25.454Z,5.40
2023-05-09T19:40:53.763Z,6.10
2023-05-09T19:43:21.366Z,6.20
2023-05-09T19:45:48.973Z,6.35
2023-05-09T19:48:16.557Z,6.25
2023-05-09T19:50:46.511Z,6.25
2023-05-09T19:53:14.843Z,6.63
2023-05-09T19:55:46.765Z,6.80
2023-05-09T19:58:17.483Z,6.93
2023-05-09T20:00:46.587Z,6.90
2023-05-09T20:03:14.334Z,7.25
2023-05-09T20:05:57.396Z,7.30
2023-05-09T20:08:26.312Z,7.38
2023-05-09T20:10:57.647Z,7.70
2023-05-09T20:13:25.171Z,7.75
2023-05-09T20:15:52.843Z,7.63
2023-05-09T20:18:20.680Z,8.13
2023-05-09T20:20:48.652Z,8.15
2023-05-09T20:23:16.105Z,7.85
2023-05-09T20:25:43.585Z,8.20
2023-05-09T20:28:20.069Z,8.30
2023-05-09T20:30:51.691Z,8.10
2023-05-09T20:33:19.234Z,8.32
2023-05-09T20:35:49.270Z,8.07
2023-05-09T20:38:16.749Z,8.32
2023-05-09T20:40:45.044Z,8.50
2023-05-09T20:43:14.517Z,9.18
2023-05-09T20:45:43.013Z,8.77
2023-05-09T20:48:10.845Z,8.93
2023-05-09T20:50:38.095Z,11.13
2023-05-09T20:53:05.450Z,8.68
2023-05-09T20:55:34.873Z,8.40
2023-05-09T20:58:35.366Z,8.95
2023-05-09T21:01:12.494Z,9.27
2023-05-09T21:03:40.684Z,8.65
2023-05-09T21:06:08.105Z,9.13
2023-05-09T21:08:35.625Z,8.98
2023-05-09T21:11:02.988Z,9.32
2023-05-09T21:13:33.326Z,9.98
2023-05-09T21:16:00.821Z,9.68
2023-05-09T21:18:29.178Z,9.65
2023-05-09T21:21:02.738Z,9.02
2023-05-09T21:23:33.988Z,8.93
2023-05-09T21:26:03.715Z,8.95
2023-05-09T21:28:31.653Z,9.07
2023-05-09T21:31:03.968Z,9.05
2023-05-09T21:33:31.492Z,9.05
2023-05-09T21:35:59.413Z,8.77
2023-05-09T21:38:30.056Z,9.23
2023-05-09T21:40:58.384Z,8.88
2023-05-09T21:43:28.976Z,9.43
2023-05-09T21:45:56.666Z,9.13
2023-05-09T21:48:24.299Z,9.48
2023-05-09T21:50:51.760Z,9.20
2023-05-09T21:53:19.364Z,8.85
2023-05-09T21:55:49.442Z,9.15
2023-05-09T21:58:19.245Z,9.95
2023-05-09T22:00:46.865Z,10.07
2023-05-09T22:03:18.438Z,9.25
2023-05-09T22:05:46.523Z,9.10
2023-05-09T22:08:15.007Z,9.77
2023-05-09T22:10:44.409Z,10.27
2023-05-09T22:13:12.013Z,9.98
2023-05-09T22:15:39.496Z,9.32
2023-05-09T22:18:06.888Z,9.95
2023-05-09T22:20:35.914Z,9.75
2023-05-09T22:23:03.678Z,9.88
2023-05-09T22:25:31.164Z,9.75
2023-05-09T22:27:58.670Z,10.50
2023-05-09T22:30:26.148Z,9.93
2023-05-09T22:32:53.627Z,9.63
2023-05-09T22:35:20.940Z,9.98
2023-05-09T22:37:48.307Z,10.37
2023-05-09T22:40:15.977Z,9.93
2023-05-09T22:42:43.590Z,9.97
2023-05-09T22:45:14.107Z,10.57
2023-05-09T22:47:45.182Z,10.47
2023-05-09T22:50:13.006Z,10.10
2023-05-09T22:52:40.628Z,9.57
2023-05-09T22:55:10.328Z,10.13
2023-05-09T22:57:37.588Z,10.00
2023-05-09T23:00:06.083Z,10.17
2023-05-09T23:02:33.376Z,9.70
2023-05-09T23:05:01.546Z,9.97
2023-05-09T23:07:30.041Z,10.27
2023-05-09T23:09:57.468Z,9.43
2023-05-09T23:12:25.386Z,10.30
2023-05-09T23:14:52.653Z,9.60
2023-05-09T23:17:20.903Z,9.20
2023-05-09T23:19:48.295Z,9.83
2023-05-09T23:22:16.231Z,10.07
2023-05-09T23:24:43.489Z,9.87
2023-05-09T23:27:10.978Z,9.80
2023-05-09T23:29:38.669Z,9.87
2023-05-09T23:32:06.038Z,9.60
2023-05-09T23:34:33.906Z,9.60
2023-05-09T23:37:03.449Z,9.40
2023-05-09T23:39:33.457Z,9.23
2023-05-09T23:42:01.417Z,8.93
2023-05-09T23:44:29.666Z,9.20
2023-05-09T23:46:57.386Z,9.87
2023-05-09T23:49:24.687Z,8.87
2023-05-09T23:51:52.308Z,9.20
2023-05-09T23:54:21.497Z,8.70
2023-05-09T23:56:49.075Z,8.60
2023-05-09T23:59:16.538Z,8.80
